Rush — ZGAV9 — position and weather

sailwx.info

Track history (hours):
 
Tides and Currents Weather Stations Pressure Air Temp Water Temp Dewpoint Dewpoint Depression Visibility Wind Speed Wind Dir Waves Ship Positions

Rush

Last reported at 2017-Aug-08 10:07 UTC. Time now 2017-Aug-18 01:02 UTC.
Position N 45°01' E 014°26'.
Warning: this ship's position is 9 days out of date.

Length 50 m; draft 1.8 m.

Type: High speed craft. MMSI: 319035300.

Date/timePositionNaut miles runAvg speedWind from/ knotsBaromVisibWave heightAir tempDewpointWater temp
2017-Aug-08 10:07N 45°01' E 014°26'1226.1
2017-Aug-08 09:40N 45°13' E 014°23'421.5
2017-Aug-08 09:30N 45°16' E 014°23'2 0.0
2017-Aug-06 15:29N 45°18' E 014°23'2723.4
2017-Aug-06 14:20N 44°54' E 014°07'826.0
2017-Aug-06 14:00N 44°47' E 013°60'13 2.3
2017-Aug-06 08:30N 44°55' E 013°46'0 0.0
2017-Aug-06 06:33N 44°55' E 013°46'0 0.1
2017-Aug-06 06:30N 44°55' E 013°46'0 0.0
2017-Aug-06 05:54N 44°55' E 013°46'0 0.0
2017-Aug-06 04:24N 44°55' E 013°46'0 0.0
2017-Aug-06 03:42N 44°55' E 013°46'0 0.0
2017-Aug-06 03:30N 44°55' E 013°46'0 0.0
2017-Aug-06 02:48N 44°55' E 013°46'0 0.0
2017-Aug-06 02:15N 44°55' E 013°46'0 0.0
2017-Aug-05 19:45N 44°55' E 013°46'0 0.0
2017-Aug-05 19:27N 44°55' E 013°46'1 0.8
2017-Aug-05 17:57N 44°56' E 013°45'920.0
2017-Aug-05 17:30N 45°04' E 013°39'0 0.1
2017-Aug-05 16:59N 45°04' E 013°39'0 0.1
2017-Aug-05 16:17N 45°04' E 013°39'0 0.1
2017-Aug-05 16:00N 45°04' E 013°39'1 0.6
2017-Aug-05 13:50N 45°05' E 013°38'3 9.5
2017-Aug-05 13:30N 45°05' E 013°34'1224.4
2017-Aug-05 13:01N 45°06' E 013°16'1224.6
2017-Aug-05 12:30N 45°07' E 012°59'1122.1
2017-Aug-05 12:00N 45°09' E 012°44'1121.6
2017-Aug-05 11:30N 45°14' E 012°30'1121.4
2017-Aug-05 11:01N 45°24' E 012°28'5 9.2
2017-Aug-05 10:31N 45°26' E 012°21'0 0.7
2017-Aug-05 10:00N 45°26' E 012°21'0 0.0
2017-Aug-05 09:30N 45°26' E 012°21'0 0.0
2017-Aug-05 09:01N 45°26' E 012°21'0 0.0
2017-Aug-05 08:30N 45°26' E 012°21'0 0.0
2017-Aug-05 08:01N 45°26' E 012°21'0 0.0
2017-Aug-05 07:30N 45°26' E 012°21'0 0.0
2017-Aug-05 07:00N 45°26' E 012°21'0 0.0
2017-Aug-05 06:30N 45°26' E 012°21'0 0.0
2017-Aug-05 06:00N 45°26' E 012°21'0 0.0
2017-Aug-05 05:30N 45°26' E 012°21'0 0.0
2017-Aug-05 05:00N 45°26' E 012°21'0 0.0
2017-Aug-05 04:30N 45°26' E 012°21'0 0.0
2017-Aug-05 04:00N 45°26' E 012°21'0 0.0
2017-Aug-05 03:30N 45°26' E 012°21'0 0.0
2017-Aug-05 03:00N 45°26' E 012°21'0 0.0
2017-Aug-05 02:30N 45°26' E 012°21'0 0.0
2017-Aug-05 02:00N 45°26' E 012°21'0 0.0
2017-Aug-05 01:30N 45°26' E 012°21'0 0.0
2017-Aug-05 01:00N 45°26' E 012°21'0 0.0
2017-Aug-05 00:30N 45°26' E 012°21'0 0.0
2017-Aug-05 00:00N 45°26' E 012°21'0 0.0
2017-Aug-04 23:30N 45°26' E 012°21'0 0.0
2017-Aug-04 23:00N 45°26' E 012°21'0 0.0
2017-Aug-04 22:30N 45°26' E 012°21'0 0.0
2017-Aug-04 22:00N 45°26' E 012°21'0 0.0
2017-Aug-04 21:30N 45°26' E 012°21'0 0.0
2017-Aug-04 20:57N 45°26' E 012°21'0 0.0
2017-Aug-04 20:27N 45°26' E 012°21'0 0.0
2017-Aug-04 20:00N 45°26' E 012°21'0 0.0
2017-Aug-04 19:30N 45°26' E 012°21'0 0.0
2017-Aug-04 19:00N 45°26' E 012°21'0 0.0
2017-Aug-04 18:30N 45°26' E 012°21'0 0.0
2017-Aug-04 18:00N 45°26' E 012°21'0 0.0
2017-Aug-04 17:27N 45°26' E 012°21'0 0.0
2017-Aug-04 17:00N 45°26' E 012°21'0 0.0
2017-Aug-04 16:30N 45°26' E 012°21'0 0.0
2017-Aug-04 16:00N 45°26' E 012°21'0 0.0
2017-Aug-04 15:24N 45°26' E 012°21'0 0.0
2017-Aug-04 15:00N 45°26' E 012°21'0 0.0
2017-Aug-04 14:00N 45°26' E 012°21'0 0.0
2017-Aug-04 13:30N 45°26' E 012°21'0 0.0
2017-Aug-04 13:00N 45°26' E 012°21'0 0.0
2017-Aug-04 12:30N 45°26' E 012°21'0 0.0
2017-Aug-04 12:00N 45°26' E 012°21'0 0.0
2017-Aug-04 11:30N 45°26' E 012°21'0 0.0
2017-Aug-04 11:00N 45°26' E 012°21'0 0.0
2017-Aug-04 10:30N 45°26' E 012°21'0 0.0
2017-Aug-04 10:00N 45°26' E 012°21'0 0.0
2017-Aug-04 09:30N 45°26' E 012°21'0 0.0
2017-Aug-04 09:00N 45°26' E 012°21'0 0.0
2017-Aug-04 08:30N 45°26' E 012°21'0 0.0
2017-Aug-04 08:00N 45°26' E 012°21'0 0.0
2017-Aug-04 07:30N 45°26' E 012°21'0 0.0
2017-Aug-04 07:00N 45°26' E 012°21'0 0.0
2017-Aug-04 06:30N 45°26' E 012°21'0 0.0
2017-Aug-04 06:00N 45°26' E 012°21'0 0.0
2017-Aug-04 05:30N 45°26' E 012°21'0 0.0
2017-Aug-04 05:00N 45°26' E 012°21'0 0.0
2017-Aug-04 04:30N 45°26' E 012°21'0 0.0
2017-Aug-04 03:54N 45°26' E 012°21'0 0.0
2017-Aug-04 03:30N 45°26' E 012°21'0 0.0
2017-Aug-04 03:00N 45°26' E 012°21'0 0.0
2017-Aug-04 02:30N 45°26' E 012°21'0 0.0
2017-Aug-04 02:00N 45°26' E 012°21'0 0.0
2017-Aug-04 01:30N 45°26' E 012°21'0 0.0
2017-Aug-04 00:57N 45°26' E 012°21'0 0.0
2017-Aug-04 00:30N 45°26' E 012°21'0 0.0
2017-Aug-04 00:00N 45°26' E 012°21'0 0.0
2017-Aug-03 23:27N 45°26' E 012°21'0 0.0
2017-Aug-03 23:00N 45°26' E 012°21'0 0.0
2017-Aug-03 22:30N 45°26' E 012°21'0 0.0
2017-Aug-03 22:00N 45°26' E 012°21'0 0.0
2017-Aug-03 21:30N 45°26' E 012°21'0 0.0
2017-Aug-03 21:00N 45°26' E 012°21'0 0.0
2017-Aug-03 20:30N 45°26' E 012°21'0 0.0
2017-Aug-03 20:00N 45°26' E 012°21'0 0.0
2017-Aug-03 19:30N 45°26' E 012°21'0 0.0
2017-Aug-03 19:00N 45°26' E 012°21'0 0.0
2017-Aug-03 18:30N 45°26' E 012°21'0 0.0
2017-Aug-03 18:00N 45°26' E 012°21'0 0.0
2017-Aug-03 17:30N 45°26' E 012°21'0 0.0
2017-Aug-03 17:00N 45°26' E 012°21'0 0.0
2017-Aug-03 16:30N 45°26' E 012°21'0 0.0
2017-Aug-03 16:00N 45°26' E 012°21'0 0.0
2017-Aug-03 15:30N 45°26' E 012°21'0 0.0
2017-Aug-03 15:00N 45°26' E 012°21'0 0.0
2017-Aug-03 14:00N 45°26' E 012°21'0 0.0
2017-Aug-03 13:30N 45°26' E 012°21'0 0.0
2017-Aug-03 13:00N 45°26' E 012°21'0 0.0
2017-Aug-03 12:30N 45°26' E 012°21'0 0.0
2017-Aug-03 12:00N 45°26' E 012°21'0 0.0
2017-Aug-03 11:30N 45°26' E 012°21'0 0.0
2017-Aug-03 11:00N 45°26' E 012°21'0 0.0
2017-Aug-03 10:30N 45°26' E 012°21'0 0.0
2017-Aug-03 10:00N 45°26' E 012°21'0 0.0
2017-Aug-03 09:30N 45°26' E 012°21'0 0.0
2017-Aug-03 09:00N 45°26' E 012°21'0 0.0
2017-Aug-03 08:30N 45°26' E 012°21'0 0.0
2017-Aug-03 08:00N 45°26' E 012°21'0 0.0
2017-Aug-03 07:30N 45°26' E 012°21'0 0.0
2017-Aug-03 07:00N 45°26' E 012°21'0 0.0
2017-Aug-03 06:30N 45°26' E 012°21'0 0.0
2017-Aug-03 06:00N 45°26' E 012°21'0 0.0
2017-Aug-03 05:30N 45°26' E 012°21'0 0.0
2017-Aug-03 05:00N 45°26' E 012°21'0 0.0
2017-Aug-03 04:30N 45°26' E 012°21'0 0.0
2017-Aug-03 04:00N 45°26' E 012°21'0 0.0
2017-Aug-03 03:30N 45°26' E 012°21'0 0.0
2017-Aug-03 03:00N 45°26' E 012°21'0 0.0
2017-Aug-03 02:30N 45°26' E 012°21'0 0.0
2017-Aug-03 02:00N 45°26' E 012°21'0 0.0
2017-Aug-03 01:27N 45°26' E 012°21'0 0.0
2017-Aug-03 01:00N 45°26' E 012°21'0 0.0
2017-Aug-03 00:30N 45°26' E 012°21'0 0.0
2017-Aug-03 00:00N 45°26' E 012°21'0 0.0
2017-Aug-02 23:30N 45°26' E 012°21'0 0.0
2017-Aug-02 23:00N 45°26' E 012°21'0 0.0
2017-Aug-02 22:30N 45°26' E 012°21'0 0.0
2017-Aug-02 21:57N 45°26' E 012°21'0 0.0
2017-Aug-02 21:30N 45°26' E 012°21'0 0.0
2017-Aug-02 21:00N 45°26' E 012°21'0 0.0
2017-Aug-02 20:30N 45°26' E 012°21'0 0.0
2017-Aug-02 20:00N 45°26' E 012°21'0 0.0
2017-Aug-02 19:30N 45°26' E 012°21'0 0.0
2017-Aug-02 19:00N 45°26' E 012°21'0 0.0
2017-Aug-02 18:30N 45°26' E 012°21'0 0.0
2017-Aug-02 18:00N 45°26' E 012°21'0 0.0
2017-Aug-02 17:30N 45°26' E 012°21'0 0.0
2017-Aug-02 16:57N 45°26' E 012°21'0 0.0
2017-Aug-02 16:30N 45°26' E 012°21'0 0.0
2017-Aug-02 16:00N 45°26' E 012°21'0 0.0
2017-Aug-02 15:30N 45°26' E 012°21'0 0.0
2017-Aug-02 15:00N 45°26' E 012°21'0 0.0
2017-Aug-02 13:30N 45°26' E 012°21'0 0.0
2017-Aug-02 13:00N 45°26' E 012°21'0 0.1
2017-Aug-02 12:30N 45°26' E 012°21'1 1.7
2017-Aug-02 11:59N 45°26' E 012°22'0 0.0
2017-Aug-02 11:29N 45°26' E 012°22'0 0.0
2017-Aug-02 10:59N 45°26' E 012°22'0 0.0
2017-Aug-02 10:29N 45°26' E 012°22'0 0.0
2017-Aug-02 09:59N 45°26' E 012°22'0 0.0
2017-Aug-02 09:29N 45°26' E 012°22'0 0.0
2017-Aug-02 08:59N 45°26' E 012°22'0 0.0
2017-Aug-02 08:29N 45°26' E 012°22'0 0.0
2017-Aug-02 08:00N 45°26' E 012°22'0 0.0
2017-Aug-02 07:30N 45°26' E 012°22'0 0.0
2017-Aug-02 06:59N 45°26' E 012°22'0 0.0
2017-Aug-02 06:29N 45°26' E 012°22'0 0.0
2017-Aug-02 05:59N 45°26' E 012°22'0 0.0
2017-Aug-02 05:29N 45°26' E 012°22'0 0.0
2017-Aug-02 04:59N 45°26' E 012°22'0 0.0
2017-Aug-02 04:29N 45°26' E 012°22'0 0.0
2017-Aug-02 03:59N 45°26' E 012°22'0 0.0
2017-Aug-02 03:29N 45°26' E 012°22'0 0.0
2017-Aug-02 03:00N 45°26' E 012°22'0 0.0
2017-Aug-02 02:30N 45°26' E 012°22'0 0.0
2017-Aug-02 01:59N 45°26' E 012°22'  
2017-Jul-29 18:59N 45°26' E 012°22'0 0.0
2017-Jul-29 18:29N 45°26' E 012°22'0 0.0
2017-Jul-29 17:59N 45°26' E 012°22'0 0.0
2017-Jul-29 17:29N 45°26' E 012°22'0 0.0
2017-Jul-29 16:59N 45°26' E 012°22'0 0.0
2017-Jul-29 16:29N 45°26' E 012°22'0 0.0
2017-Jul-29 15:59N 45°26' E 012°22'0 0.0
2017-Jul-29 15:29N 45°26' E 012°22'0 0.0
2017-Jul-29 14:59N 45°26' E 012°22'0 0.0
2017-Jul-29 13:59N 45°26' E 012°22'0 0.0
2017-Jul-29 13:29N 45°26' E 012°22'0 0.0
2017-Jul-29 12:59N 45°26' E 012°22'0 0.0
2017-Jul-29 12:29N 45°26' E 012°22'0 0.0
2017-Jul-29 11:59N 45°26' E 012°22'0 0.0
2017-Jul-29 11:26N 45°26' E 012°22'0 0.0
2017-Jul-29 10:59N 45°26' E 012°22'0 0.0
2017-Jul-29 10:29N 45°26' E 012°22'  
Track history (hours):
 
Tides and Currents Weather Stations Pressure Air Temp Water Temp Dewpoint Dewpoint Depression Visibility Wind Speed Wind Dir Waves Ship Positions

Rush

Last reported at 2017-Aug-08 10:07 UTC. Time now 2017-Aug-18 01:02 UTC.
Position N 45°01' E 014°26'.
Warning: this ship's position is 9 days out of date.

Length 50 m; draft 1.8 m.

Type: High speed craft. MMSI: 319035300.

Date/timePositionNaut miles runAvg speedWind from/ knotsBaromVisibWave heightAir tempDewpointWater temp
2017-Aug-08 10:07N 45°01' E 014°26'1226.1
2017-Aug-08 09:40N 45°13' E 014°23'421.5
2017-Aug-08 09:30N 45°16' E 014°23'2 0.0
2017-Aug-06 15:29N 45°18' E 014°23'2723.4
2017-Aug-06 14:20N 44°54' E 014°07'826.0
2017-Aug-06 14:00N 44°47' E 013°60'13 2.3
2017-Aug-06 08:30N 44°55' E 013°46'0 0.0
2017-Aug-06 06:33N 44°55' E 013°46'0 0.1
2017-Aug-06 06:30N 44°55' E 013°46'0 0.0
2017-Aug-06 05:54N 44°55' E 013°46'0 0.0
2017-Aug-06 04:24N 44°55' E 013°46'0 0.0
2017-Aug-06 03:42N 44°55' E 013°46'0 0.0
2017-Aug-06 03:30N 44°55' E 013°46'0 0.0
2017-Aug-06 02:48N 44°55' E 013°46'0 0.0
2017-Aug-06 02:15N 44°55' E 013°46'0 0.0
2017-Aug-05 19:45N 44°55' E 013°46'0 0.0
2017-Aug-05 19:27N 44°55' E 013°46'1 0.8
2017-Aug-05 17:57N 44°56' E 013°45'920.0
2017-Aug-05 17:30N 45°04' E 013°39'0 0.1
2017-Aug-05 16:59N 45°04' E 013°39'0 0.1
2017-Aug-05 16:17N 45°04' E 013°39'0 0.1
2017-Aug-05 16:00N 45°04' E 013°39'1 0.6
2017-Aug-05 13:50N 45°05' E 013°38'3 9.5
2017-Aug-05 13:30N 45°05' E 013°34'1224.4
2017-Aug-05 13:01N 45°06' E 013°16'1224.6
2017-Aug-05 12:30N 45°07' E 012°59'1122.1
2017-Aug-05 12:00N 45°09' E 012°44'1121.6
2017-Aug-05 11:30N 45°14' E 012°30'1121.4
2017-Aug-05 11:01N 45°24' E 012°28'5 9.2
2017-Aug-05 10:31N 45°26' E 012°21'0 0.7
2017-Aug-05 10:00N 45°26' E 012°21'0 0.0
2017-Aug-05 09:30N 45°26' E 012°21'0 0.0
2017-Aug-05 09:01N 45°26' E 012°21'0 0.0
2017-Aug-05 08:30N 45°26' E 012°21'0 0.0
2017-Aug-05 08:01N 45°26' E 012°21'0 0.0
2017-Aug-05 07:30N 45°26' E 012°21'0 0.0
2017-Aug-05 07:00N 45°26' E 012°21'0 0.0
2017-Aug-05 06:30N 45°26' E 012°21'0 0.0
2017-Aug-05 06:00N 45°26' E 012°21'0 0.0
2017-Aug-05 05:30N 45°26' E 012°21'0 0.0
2017-Aug-05 05:00N 45°26' E 012°21'0 0.0
2017-Aug-05 04:30N 45°26' E 012°21'0 0.0
2017-Aug-05 04:00N 45°26' E 012°21'0 0.0
2017-Aug-05 03:30N 45°26' E 012°21'0 0.0
2017-Aug-05 03:00N 45°26' E 012°21'0 0.0
2017-Aug-05 02:30N 45°26' E 012°21'0 0.0
2017-Aug-05 02:00N 45°26' E 012°21'0 0.0
2017-Aug-05 01:30N 45°26' E 012°21'0 0.0
2017-Aug-05 01:00N 45°26' E 012°21'0 0.0
2017-Aug-05 00:30N 45°26' E 012°21'0 0.0
2017-Aug-05 00:00N 45°26' E 012°21'0 0.0
2017-Aug-04 23:30N 45°26' E 012°21'0 0.0
2017-Aug-04 23:00N 45°26' E 012°21'0 0.0
2017-Aug-04 22:30N 45°26' E 012°21'0 0.0
2017-Aug-04 22:00N 45°26' E 012°21'0 0.0
2017-Aug-04 21:30N 45°26' E 012°21'0 0.0
2017-Aug-04 20:57N 45°26' E 012°21'0 0.0
2017-Aug-04 20:27N 45°26' E 012°21'0 0.0
2017-Aug-04 20:00N 45°26' E 012°21'0 0.0
2017-Aug-04 19:30N 45°26' E 012°21'0 0.0
2017-Aug-04 19:00N 45°26' E 012°21'0 0.0
2017-Aug-04 18:30N 45°26' E 012°21'0 0.0
2017-Aug-04 18:00N 45°26' E 012°21'0 0.0
2017-Aug-04 17:27N 45°26' E 012°21'0 0.0
2017-Aug-04 17:00N 45°26' E 012°21'0 0.0
2017-Aug-04 16:30N 45°26' E 012°21'0 0.0
2017-Aug-04 16:00N 45°26' E 012°21'0 0.0
2017-Aug-04 15:24N 45°26' E 012°21'0 0.0
2017-Aug-04 15:00N 45°26' E 012°21'0 0.0
2017-Aug-04 14:00N 45°26' E 012°21'0 0.0
2017-Aug-04 13:30N 45°26' E 012°21'0 0.0
2017-Aug-04 13:00N 45°26' E 012°21'0 0.0
2017-Aug-04 12:30N 45°26' E 012°21'0 0.0
2017-Aug-04 12:00N 45°26' E 012°21'0 0.0
2017-Aug-04 11:30N 45°26' E 012°21'0 0.0
2017-Aug-04 11:00N 45°26' E 012°21'0 0.0
2017-Aug-04 10:30N 45°26' E 012°21'0 0.0
2017-Aug-04 10:00N 45°26' E 012°21'0 0.0
2017-Aug-04 09:30N 45°26' E 012°21'0 0.0
2017-Aug-04 09:00N 45°26' E 012°21'0 0.0
2017-Aug-04 08:30N 45°26' E 012°21'0 0.0
2017-Aug-04 08:00N 45°26' E 012°21'0 0.0
2017-Aug-04 07:30N 45°26' E 012°21'0 0.0
2017-Aug-04 07:00N 45°26' E 012°21'0 0.0
2017-Aug-04 06:30N 45°26' E 012°21'0 0.0
2017-Aug-04 06:00N 45°26' E 012°21'0 0.0
2017-Aug-04 05:30N 45°26' E 012°21'0 0.0
2017-Aug-04 05:00N 45°26' E 012°21'0 0.0
2017-Aug-04 04:30N 45°26' E 012°21'0 0.0
2017-Aug-04 03:54N 45°26' E 012°21'0 0.0
2017-Aug-04 03:30N 45°26' E 012°21'0 0.0
2017-Aug-04 03:00N 45°26' E 012°21'0 0.0
2017-Aug-04 02:30N 45°26' E 012°21'0 0.0
2017-Aug-04 02:00N 45°26' E 012°21'0 0.0
2017-Aug-04 01:30N 45°26' E 012°21'0 0.0
2017-Aug-04 00:57N 45°26' E 012°21'0 0.0
2017-Aug-04 00:30N 45°26' E 012°21'0 0.0
2017-Aug-04 00:00N 45°26' E 012°21'0 0.0
2017-Aug-03 23:27N 45°26' E 012°21'0 0.0
2017-Aug-03 23:00N 45°26' E 012°21'0 0.0
2017-Aug-03 22:30N 45°26' E 012°21'0 0.0
2017-Aug-03 22:00N 45°26' E 012°21'0 0.0
2017-Aug-03 21:30N 45°26' E 012°21'0 0.0
2017-Aug-03 21:00N 45°26' E 012°21'0 0.0
2017-Aug-03 20:30N 45°26' E 012°21'0 0.0
2017-Aug-03 20:00N 45°26' E 012°21'0 0.0
2017-Aug-03 19:30N 45°26' E 012°21'0 0.0
2017-Aug-03 19:00N 45°26' E 012°21'0 0.0
2017-Aug-03 18:30N 45°26' E 012°21'0 0.0
2017-Aug-03 18:00N 45°26' E 012°21'0 0.0
2017-Aug-03 17:30N 45°26' E 012°21'0 0.0
2017-Aug-03 17:00N 45°26' E 012°21'0 0.0
2017-Aug-03 16:30N 45°26' E 012°21'0 0.0
2017-Aug-03 16:00N 45°26' E 012°21'0 0.0
2017-Aug-03 15:30N 45°26' E 012°21'0 0.0
2017-Aug-03 15:00N 45°26' E 012°21'0 0.0
2017-Aug-03 14:00N 45°26' E 012°21'0 0.0
2017-Aug-03 13:30N 45°26' E 012°21'0 0.0
2017-Aug-03 13:00N 45°26' E 012°21'0 0.0
2017-Aug-03 12:30N 45°26' E 012°21'0 0.0
2017-Aug-03 12:00N 45°26' E 012°21'0 0.0
2017-Aug-03 11:30N 45°26' E 012°21'0 0.0
2017-Aug-03 11:00N 45°26' E 012°21'0 0.0
2017-Aug-03 10:30N 45°26' E 012°21'0 0.0
2017-Aug-03 10:00N 45°26' E 012°21'0 0.0
2017-Aug-03 09:30N 45°26' E 012°21'0 0.0
2017-Aug-03 09:00N 45°26' E 012°21'0 0.0
2017-Aug-03 08:30N 45°26' E 012°21'0 0.0
2017-Aug-03 08:00N 45°26' E 012°21'0 0.0
2017-Aug-03 07:30N 45°26' E 012°21'0 0.0
2017-Aug-03 07:00N 45°26' E 012°21'0 0.0
2017-Aug-03 06:30N 45°26' E 012°21'0 0.0
2017-Aug-03 06:00N 45°26' E 012°21'0 0.0
2017-Aug-03 05:30N 45°26' E 012°21'0 0.0
2017-Aug-03 05:00N 45°26' E 012°21'0 0.0
2017-Aug-03 04:30N 45°26' E 012°21'0 0.0
2017-Aug-03 04:00N 45°26' E 012°21'0 0.0
2017-Aug-03 03:30N 45°26' E 012°21'0 0.0
2017-Aug-03 03:00N 45°26' E 012°21'0 0.0
2017-Aug-03 02:30N 45°26' E 012°21'0 0.0
2017-Aug-03 02:00N 45°26' E 012°21'0 0.0
2017-Aug-03 01:27N 45°26' E 012°21'0 0.0
2017-Aug-03 01:00N 45°26' E 012°21'0 0.0
2017-Aug-03 00:30N 45°26' E 012°21'0 0.0
2017-Aug-03 00:00N 45°26' E 012°21'0 0.0
2017-Aug-02 23:30N 45°26' E 012°21'0 0.0
2017-Aug-02 23:00N 45°26' E 012°21'0 0.0
2017-Aug-02 22:30N 45°26' E 012°21'0 0.0
2017-Aug-02 21:57N 45°26' E 012°21'0 0.0
2017-Aug-02 21:30N 45°26' E 012°21'0 0.0
2017-Aug-02 21:00N 45°26' E 012°21'0 0.0
2017-Aug-02 20:30N 45°26' E 012°21'0 0.0
2017-Aug-02 20:00N 45°26' E 012°21'0 0.0
2017-Aug-02 19:30N 45°26' E 012°21'0 0.0
2017-Aug-02 19:00N 45°26' E 012°21'0 0.0
2017-Aug-02 18:30N 45°26' E 012°21'0 0.0
2017-Aug-02 18:00N 45°26' E 012°21'0 0.0
2017-Aug-02 17:30N 45°26' E 012°21'0 0.0
2017-Aug-02 16:57N 45°26' E 012°21'0 0.0
2017-Aug-02 16:30N 45°26' E 012°21'0 0.0
2017-Aug-02 16:00N 45°26' E 012°21'0 0.0
2017-Aug-02 15:30N 45°26' E 012°21'0 0.0
2017-Aug-02 15:00N 45°26' E 012°21'0 0.0
2017-Aug-02 13:30N 45°26' E 012°21'0 0.0
2017-Aug-02 13:00N 45°26' E 012°21'0 0.1
2017-Aug-02 12:30N 45°26' E 012°21'1 1.7
2017-Aug-02 11:59N 45°26' E 012°22'0 0.0
2017-Aug-02 11:29N 45°26' E 012°22'0 0.0
2017-Aug-02 10:59N 45°26' E 012°22'0 0.0
2017-Aug-02 10:29N 45°26' E 012°22'0 0.0
2017-Aug-02 09:59N 45°26' E 012°22'0 0.0
2017-Aug-02 09:29N 45°26' E 012°22'0 0.0
2017-Aug-02 08:59N 45°26' E 012°22'0 0.0
2017-Aug-02 08:29N 45°26' E 012°22'0 0.0
2017-Aug-02 08:00N 45°26' E 012°22'0 0.0
2017-Aug-02 07:30N 45°26' E 012°22'0 0.0
2017-Aug-02 06:59N 45°26' E 012°22'0 0.0
2017-Aug-02 06:29N 45°26' E 012°22'0 0.0
2017-Aug-02 05:59N 45°26' E 012°22'0 0.0
2017-Aug-02 05:29N 45°26' E 012°22'0 0.0
2017-Aug-02 04:59N 45°26' E 012°22'0 0.0
2017-Aug-02 04:29N 45°26' E 012°22'0 0.0
2017-Aug-02 03:59N 45°26' E 012°22'0 0.0
2017-Aug-02 03:29N 45°26' E 012°22'0 0.0
2017-Aug-02 03:00N 45°26' E 012°22'0 0.0
2017-Aug-02 02:30N 45°26' E 012°22'0 0.0
2017-Aug-02 01:59N 45°26' E 012°22'  
2017-Jul-29 18:59N 45°26' E 012°22'0 0.0
2017-Jul-29 18:29N 45°26' E 012°22'0 0.0
2017-Jul-29 17:59N 45°26' E 012°22'0 0.0
2017-Jul-29 17:29N 45°26' E 012°22'0 0.0
2017-Jul-29 16:59N 45°26' E 012°22'0 0.0
2017-Jul-29 16:29N 45°26' E 012°22'0 0.0
2017-Jul-29 15:59N 45°26' E 012°22'0 0.0
2017-Jul-29 15:29N 45°26' E 012°22'0 0.0
2017-Jul-29 14:59N 45°26' E 012°22'0 0.0
2017-Jul-29 13:59N 45°26' E 012°22'0 0.0
2017-Jul-29 13:29N 45°26' E 012°22'0 0.0
2017-Jul-29 12:59N 45°26' E 012°22'0 0.0
2017-Jul-29 12:29N 45°26' E 012°22'0 0.0
2017-Jul-29 11:59N 45°26' E 012°22'0 0.0
2017-Jul-29 11:26N 45°26' E 012°22'0 0.0
2017-Jul-29 10:59N 45°26' E 012°22'0 0.0
2017-Jul-29 10:29N 45°26' E 012°22'  

Dump ship's entire track history